sensor_id;sensor_type;location;lat;lon;timestamp;P1;durP1;ratioP1;P2;durP2;ratioP2
3571;SDS011;7958;53.024;12.970;2024-02-28T00:01:47;19.13;;;7.70;;
3571;SDS011;7958;53.024;12.970;2024-02-28T00:04:15;16.03;;;8.30;;
3571;SDS011;7958;53.024;12.970;2024-02-28T00:06:42;18.20;;;8.33;;
3571;SDS011;7958;53.024;12.970;2024-02-28T00:09:08;10.23;;;6.80;;
3571;SDS011;7958;53.024;12.970;2024-02-28T00:11:36;14.20;;;6.90;;
3571;SDS011;7958;53.024;12.970;2024-02-28T00:14:02;13.80;;;7.17;;
3571;SDS011;7958;53.024;12.970;2024-02-28T00:16:29;15.03;;;8.00;;
3571;SDS011;7958;53.024;12.970;2024-02-28T00:18:55;15.63;;;7.63;;
3571;SDS011;7958;53.024;12.970;2024-02-28T00:21:23;16.77;;;7.70;;
3571;SDS011;7958;53.024;12.970;2024-02-28T00:23:49;17.37;;;7.83;;
3571;SDS011;7958;53.024;12.970;2024-02-28T00:26:15;15.10;;;8.33;;
3571;SDS011;7958;53.024;12.970;2024-02-28T00:28:42;12.07;;;7.47;;
3571;SDS011;7958;53.024;12.970;2024-02-28T00:31:08;17.63;;;7.63;;
3571;SDS011;7958;53.024;12.970;2024-02-28T00:33:35;12.33;;;7.30;;
3571;SDS011;7958;53.024;12.970;2024-02-28T00:36:01;12.80;;;7.60;;
3571;SDS011;7958;53.024;12.970;2024-02-28T00:38:29;11.27;;;7.07;;
3571;SDS011;7958;53.024;12.970;2024-02-28T00:40:55;14.00;;;7.17;;
3571;SDS011;7958;53.024;12.970;2024-02-28T00:43:22;13.00;;;7.20;;
3571;SDS011;7958;53.024;12.970;2024-02-28T00:45:48;15.27;;;7.30;;
3571;SDS011;7958;53.024;12.970;2024-02-28T00:48:15;15.63;;;6.80;;
3571;SDS011;7958;53.024;12.970;2024-02-28T00:50:41;13.30;;;7.13;;
3571;SDS011;7958;53.024;12.970;2024-02-28T00:53:07;12.53;;;6.57;;
3571;SDS011;7958;53.024;12.970;2024-02-28T00:55:35;13.40;;;7.37;;
3571;SDS011;7958;53.024;12.970;2024-02-28T00:58:02;15.37;;;7.70;;
3571;SDS011;7958;53.024;12.970;2024-02-28T01:00:28;13.13;;;7.00;;
3571;SDS011;7958;53.024;12.970;2024-02-28T01:02:55;14.50;;;8.07;;
3571;SDS011;7958;53.024;12.970;2024-02-28T01:05:21;12.77;;;6.80;;
3571;SDS011;7958;53.024;12.970;2024-02-28T01:07:47;13.13;;;7.13;;
3571;SDS011;7958;53.024;12.970;2024-02-28T01:10:14;12.57;;;7.23;;
3571;SDS011;7958;53.024;12.970;2024-02-28T01:12:42;15.70;;;8.00;;
3571;SDS011;7958;53.024;12.970;2024-02-28T01:15:09;20.23;;;7.70;;
3571;SDS011;7958;53.024;12.970;2024-02-28T01:17:35;12.87;;;6.87;;
3571;SDS011;7958;53.024;12.970;2024-02-28T01:20:02;12.77;;;6.63;;
3571;SDS011;7958;53.024;12.970;2024-02-28T01:22:29;13.90;;;7.57;;
3571;SDS011;7958;53.024;12.970;2024-02-28T01:24:55;12.33;;;6.83;;
3571;SDS011;7958;53.024;12.970;2024-02-28T01:27:21;12.10;;;6.53;;
3571;SDS011;7958;53.024;12.970;2024-02-28T01:29:49;11.77;;;6.00;;
3571;SDS011;7958;53.024;12.970;2024-02-28T01:32:15;17.37;;;6.77;;
3571;SDS011;7958;53.024;12.970;2024-02-28T01:34:42;11.70;;;6.40;;
3571;SDS011;7958;53.024;12.970;2024-02-28T01:37:08;14.10;;;7.47;;
3571;SDS011;7958;53.024;12.970;2024-02-28T01:39:35;12.90;;;6.93;;
3571;SDS011;7958;53.024;12.970;2024-02-28T01:42:01;17.03;;;7.30;;
3571;SDS011;7958;53.024;12.970;2024-02-28T01:44:27;13.73;;;6.57;;
3571;SDS011;7958;53.024;12.970;2024-02-28T01:46:55;13.07;;;7.30;;
3571;SDS011;7958;53.024;12.970;2024-02-28T01:49:23;11.50;;;6.83;;
3571;SDS011;7958;53.024;12.970;2024-02-28T01:51:50;11.70;;;6.20;;
3571;SDS011;7958;53.024;12.970;2024-02-28T01:54:17;11.83;;;6.87;;
3571;SDS011;7958;53.024;12.970;2024-02-28T01:56:44;15.40;;;6.60;;
3571;SDS011;7958;53.024;12.970;2024-02-28T01:59:11;15.20;;;7.77;;
3571;SDS011;7958;53.024;12.970;2024-02-28T02:01:37;13.37;;;6.60;;
3571;SDS011;7958;53.024;12.970;2024-02-28T02:04:05;13.10;;;6.70;;
3571;SDS011;7958;53.024;12.970;2024-02-28T02:06:32;9.17;;;5.90;;
3571;SDS011;7958;53.024;12.970;2024-02-28T02:08:58;9.60;;;5.97;;
3571;SDS011;7958;53.024;12.970;2024-02-28T02:11:24;11.03;;;5.90;;
3571;SDS011;7958;53.024;12.970;2024-02-28T02:13:52;11.13;;;6.33;;
3571;SDS011;7958;53.024;12.970;2024-02-28T02:16:19;8.17;;;5.00;;
3571;SDS011;7958;53.024;12.970;2024-02-28T02:18:47;9.20;;;5.50;;
3571;SDS011;7958;53.024;12.970;2024-02-28T02:21:15;10.17;;;5.20;;
3571;SDS011;7958;53.024;12.970;2024-02-28T02:23:45;11.97;;;6.50;;
3571;SDS011;7958;53.024;12.970;2024-02-28T02:26:11;12.40;;;6.00;;
3571;SDS011;7958;53.024;12.970;2024-02-28T02:28:38;12.57;;;6.27;;
3571;SDS011;7958;53.024;12.970;2024-02-28T02:31:04;11.77;;;5.83;;
3571;SDS011;7958;53.024;12.970;2024-02-28T02:33:30;14.83;;;6.23;;
3571;SDS011;7958;53.024;12.970;2024-02-28T02:35:57;10.57;;;6.50;;
3571;SDS011;7958;53.024;12.970;2024-02-28T02:38:23;9.80;;;6.00;;
3571;SDS011;7958;53.024;12.970;2024-02-28T02:40:51;11.00;;;6.00;;
3571;SDS011;7958;53.024;12.970;2024-02-28T02:43:18;13.07;;;6.43;;
3571;SDS011;7958;53.024;12.970;2024-02-28T02:45:44;12.37;;;5.60;;
3571;SDS011;7958;53.024;12.970;2024-02-28T02:48:11;12.23;;;6.57;;
3571;SDS011;7958;53.024;12.970;2024-02-28T02:50:37;12.47;;;6.30;;
3571;SDS011;7958;53.024;12.970;2024-02-28T02:53:04;9.97;;;5.77;;
3571;SDS011;7958;53.024;12.970;2024-02-28T02:55:30;11.47;;;6.20;;
3571;SDS011;7958;53.024;12.970;2024-02-28T02:57:58;12.57;;;6.80;;
3571;SDS011;7958;53.024;12.970;2024-02-28T03:00:25;11.77;;;6.13;;
3571;SDS011;7958;53.024;12.970;2024-02-28T03:02:51;9.20;;;5.40;;
3571;SDS011;7958;53.024;12.970;2024-02-28T03:05:18;10.73;;;5.90;;
3571;SDS011;7958;53.024;12.970;2024-02-28T03:07:44;13.00;;;7.10;;
3571;SDS011;7958;53.024;12.970;2024-02-28T03:10:10;12.57;;;6.97;;
3571;SDS011;7958;53.024;12.970;2024-02-28T03:12:37;12.40;;;5.97;;
3571;SDS011;7958;53.024;12.970;2024-02-28T03:15:05;12.93;;;6.43;;
3571;SDS011;7958;53.024;12.970;2024-02-28T03:17:32;10.30;;;6.33;;
3571;SDS011;7958;53.024;12.970;2024-02-28T03:19:58;10.90;;;6.20;;
3571;SDS011;7958;53.024;12.970;2024-02-28T03:22:25;9.40;;;6.20;;
3571;SDS011;7958;53.024;12.970;2024-02-28T03:24:51;9.93;;;6.57;;
3571;SDS011;7958;53.024;12.970;2024-02-28T03:27:18;11.87;;;6.10;;
3571;SDS011;7958;53.024;12.970;2024-02-28T03:29:44;9.27;;;5.93;;
3571;SDS011;7958;53.024;12.970;2024-02-28T03:32:12;12.50;;;6.17;;
3571;SDS011;7958;53.024;12.970;2024-02-28T03:34:39;9.07;;;6.03;;
3571;SDS011;7958;53.024;12.970;2024-02-28T03:37:06;11.17;;;6.63;;
3571;SDS011;7958;53.024;12.970;2024-02-28T03:39:32;7.70;;;5.80;;
3571;SDS011;7958;53.024;12.970;2024-02-28T03:41:58;10.07;;;5.97;;
3571;SDS011;7958;53.024;12.970;2024-02-28T03:44:25;9.80;;;5.93;;
3571;SDS011;7958;53.024;12.970;2024-02-28T03:46:51;9.50;;;5.67;;
3571;SDS011;7958;53.024;12.970;2024-02-28T03:49:19;9.17;;;5.43;;
3571;SDS011;7958;53.024;12.970;2024-02-28T03:51:45;6.17;;;4.70;;
3571;SDS011;7958;53.024;12.970;2024-02-28T03:54:13;10.40;;;6.37;;
3571;SDS011;7958;53.024;12.970;2024-02-28T03:56:40;5.90;;;4.33;;
3571;SDS011;7958;53.024;12.970;2024-02-28T03:59:06;7.17;;;5.07;;
3571;SDS011;7958;53.024;12.970;2024-02-28T04:01:33;5.77;;;3.93;;
3571;SDS011;7958;53.024;12.970;2024-02-28T04:03:59;7.10;;;4.60;;
3571;SDS011;7958;53.024;12.970;2024-02-28T04:06:27;8.50;;;4.90;;
3571;SDS011;7958;53.024;12.970;2024-02-28T04:08:53;6.10;;;4.37;;
3571;SDS011;7958;53.024;12.970;2024-02-28T04:11:20;12.33;;;4.83;;
3571;SDS011;7958;53.024;12.970;2024-02-28T04:13:46;7.07;;;4.43;;
3571;SDS011;7958;53.024;12.970;2024-02-28T04:16:13;5.80;;;4.60;;
3571;SDS011;7958;53.024;12.970;2024-02-28T04:18:39;6.07;;;4.33;;
3571;SDS011;7958;53.024;12.970;2024-02-28T04:21:06;4.80;;;3.80;;
3571;SDS011;7958;53.024;12.970;2024-02-28T04:23:33;7.57;;;4.10;;
3571;SDS011;7958;53.024;12.970;2024-02-28T04:26:00;4.93;;;4.23;;
3571;SDS011;7958;53.024;12.970;2024-02-28T04:28:26;5.17;;;4.00;;
3571;SDS011;7958;53.024;12.970;2024-02-28T04:30:53;6.17;;;4.27;;
3571;SDS011;7958;53.024;12.970;2024-02-28T04:33:19;7.33;;;4.77;;
3571;SDS011;7958;53.024;12.970;2024-02-28T04:35:46;8.20;;;4.30;;
3571;SDS011;7958;53.024;12.970;2024-02-28T04:38:12;6.77;;;4.97;;
3571;SDS011;7958;53.024;12.970;2024-02-28T04:40:40;6.87;;;5.60;;
3571;SDS011;7958;53.024;12.970;2024-02-28T04:43:06;6.40;;;4.50;;
3571;SDS011;7958;53.024;12.970;2024-02-28T04:45:33;6.00;;;4.00;;
3571;SDS011;7958;53.024;12.970;2024-02-28T04:48:00;6.60;;;4.60;;
3571;SDS011;7958;53.024;12.970;2024-02-28T04:50:27;6.40;;;4.87;;
3571;SDS011;7958;53.024;12.970;2024-02-28T04:52:53;6.73;;;4.90;;
3571;SDS011;7958;53.024;12.970;2024-02-28T04:55:20;7.83;;;4.50;;
3571;SDS011;7958;53.024;12.970;2024-02-28T04:57:48;4.67;;;3.80;;
3571;SDS011;7958;53.024;12.970;2024-02-28T05:00:15;5.77;;;4.13;;
3571;SDS011;7958;53.024;12.970;2024-02-28T05:02:41;6.43;;;4.53;;
3571;SDS011;7958;53.024;12.970;2024-02-28T05:05:08;7.57;;;5.40;;
3571;SDS011;7958;53.024;12.970;2024-02-28T05:07:34;9.87;;;6.80;;
3571;SDS011;7958;53.024;12.970;2024-02-28T05:10:01;6.23;;;5.30;;
3571;SDS011;7958;53.024;12.970;2024-02-28T05:12:27;6.63;;;4.83;;
3571;SDS011;7958;53.024;12.970;2024-02-28T05:14:55;5.77;;;4.80;;
3571;SDS011;7958;53.024;12.970;2024-02-28T05:17:21;5.70;;;4.20;;
3571;SDS011;7958;53.024;12.970;2024-02-28T05:19:47;4.37;;;3.67;;
3571;SDS011;7958;53.024;12.970;2024-02-28T05:22:14;5.43;;;4.33;;
3571;SDS011;7958;53.024;12.970;2024-02-28T05:24:40;5.50;;;3.80;;
3571;SDS011;7958;53.024;12.970;2024-02-28T05:27:08;6.87;;;3.90;;
3571;SDS011;7958;53.024;12.970;2024-02-28T05:29:35;5.47;;;3.93;;
3571;SDS011;7958;53.024;12.970;2024-02-28T05:32:03;5.70;;;3.73;;
3571;SDS011;7958;53.024;12.970;2024-02-28T05:34:29;7.40;;;3.83;;
3571;SDS011;7958;53.024;12.970;2024-02-28T05:36:56;5.57;;;3.90;;
3571;SDS011;7958;53.024;12.970;2024-02-28T05:39:22;6.27;;;4.00;;
3571;SDS011;7958;53.024;12.970;2024-02-28T05:41:49;5.80;;;3.90;;
3571;SDS011;7958;53.024;12.970;2024-02-28T05:44:15;4.93;;;3.90;;
3571;SDS011;7958;53.024;12.970;2024-02-28T05:46:41;5.30;;;3.60;;
3571;SDS011;7958;53.024;12.970;2024-02-28T05:49:09;5.70;;;3.73;;
3571;SDS011;7958;53.024;12.970;2024-02-28T05:51:35;5.73;;;4.23;;
3571;SDS011;7958;53.024;12.970;2024-02-28T05:54:02;5.67;;;4.20;;
3571;SDS011;7958;53.024;12.970;2024-02-28T05:56:28;5.13;;;4.03;;
3571;SDS011;7958;53.024;12.970;2024-02-28T05:58:55;4.83;;;4.07;;
3571;SDS011;7958;53.024;12.970;2024-02-28T06:01:21;5.57;;;3.60;;
3571;SDS011;7958;53.024;12.970;2024-02-28T06:03:48;5.40;;;3.90;;
3571;SDS011;7958;53.024;12.970;2024-02-28T06:06:15;4.90;;;3.93;;
3571;SDS011;7958;53.024;12.970;2024-02-28T06:08:42;4.93;;;3.90;;
3571;SDS011;7958;53.024;12.970;2024-02-28T06:11:09;5.03;;;3.70;;
3571;SDS011;7958;53.024;12.970;2024-02-28T06:13:35;4.30;;;3.77;;
3571;SDS011;7958;53.024;12.970;2024-02-28T06:16:02;4.67;;;3.60;;
3571;SDS011;7958;53.024;12.970;2024-02-28T06:18:29;4.33;;;3.90;;
3571;SDS011;7958;53.024;12.970;2024-02-28T06:20:58;5.13;;;3.77;;
3571;SDS011;7958;53.024;12.970;2024-02-28T06:23:26;5.33;;;4.07;;
3571;SDS011;7958;53.024;12.970;2024-02-28T06:25:53;3.80;;;3.37;;
3571;SDS011;7958;53.024;12.970;2024-02-28T06:28:19;5.83;;;4.30;;
3571;SDS011;7958;53.024;12.970;2024-02-28T06:30:46;5.27;;;3.83;;
3571;SDS011;7958;53.024;12.970;2024-02-28T06:33:12;9.70;;;6.40;;
3571;SDS011;7958;53.024;12.970;2024-02-28T06:35:39;8.00;;;4.90;;
3571;SDS011;7958;53.024;12.970;2024-02-28T06:38:05;6.77;;;4.60;;
3571;SDS011;7958;53.024;12.970;2024-02-28T06:40:33;5.67;;;3.90;;
3571;SDS011;7958;53.024;12.970;2024-02-28T06:43:00;8.03;;;4.77;;
3571;SDS011;7958;53.024;12.970;2024-02-28T06:45:26;6.47;;;4.30;;
3571;SDS011;7958;53.024;12.970;2024-02-28T06:47:53;6.10;;;4.07;;
3571;SDS011;7958;53.024;12.970;2024-02-28T06:50:19;5.87;;;4.63;;
3571;SDS011;7958;53.024;12.970;2024-02-28T06:52:45;8.90;;;4.30;;
3571;SDS011;7958;53.024;12.970;2024-02-28T06:55:12;7.63;;;5.10;;
3571;SDS011;7958;53.024;12.970;2024-02-28T06:57:41;14.87;;;6.17;;
3571;SDS011;7958;53.024;12.970;2024-02-28T07:00:09;7.20;;;4.70;;
3571;SDS011;7958;53.024;12.970;2024-02-28T07:02:37;6.77;;;4.97;;
3571;SDS011;7958;53.024;12.970;2024-02-28T07:05:04;8.20;;;5.27;;
3571;SDS011;7958;53.024;12.970;2024-02-28T07:07:31;6.50;;;5.10;;
3571;SDS011;7958;53.024;12.970;2024-02-28T07:09:58;6.60;;;5.00;;
3571;SDS011;7958;53.024;12.970;2024-02-28T07:12:24;8.30;;;5.40;;
3571;SDS011;7958;53.024;12.970;2024-02-28T07:14:52;7.93;;;5.60;;
3571;SDS011;7958;53.024;12.970;2024-02-28T07:17:20;8.43;;;5.67;;
3571;SDS011;7958;53.024;12.970;2024-02-28T07:19:46;9.77;;;6.33;;
3571;SDS011;7958;53.024;12.970;2024-02-28T07:22:13;10.80;;;6.40;;
3571;SDS011;7958;53.024;12.970;2024-02-28T07:24:39;9.47;;;5.70;;
3571;SDS011;7958;53.024;12.970;2024-02-28T07:27:06;10.17;;;5.90;;
3571;SDS011;7958;53.024;12.970;2024-02-28T07:32:13;9.77;;;5.87;;
3571;SDS011;7958;53.024;12.970;2024-02-28T07:34:40;8.80;;;5.47;;
3571;SDS011;7958;53.024;12.970;2024-02-28T07:37:07;9.00;;;6.37;;
3571;SDS011;7958;53.024;12.970;2024-02-28T07:39:33;9.30;;;5.67;;
3571;SDS011;7958;53.024;12.970;2024-02-28T07:42:00;8.97;;;5.70;;
3571;SDS011;7958;53.024;12.970;2024-02-28T07:44:26;8.77;;;5.67;;
3571;SDS011;7958;53.024;12.970;2024-02-28T07:46:55;6.70;;;5.20;;
3571;SDS011;7958;53.024;12.970;2024-02-28T07:49:23;7.07;;;4.80;;
3571;SDS011;7958;53.024;12.970;2024-02-28T07:51:50;7.10;;;5.23;;
3571;SDS011;7958;53.024;12.970;2024-02-28T07:54:16;13.63;;;5.17;;
3571;SDS011;7958;53.024;12.970;2024-02-28T07:56:43;6.90;;;4.70;;
3571;SDS011;7958;53.024;12.970;2024-02-28T07:59:10;5.87;;;4.50;;
3571;SDS011;7958;53.024;12.970;2024-02-28T08:01:36;6.40;;;4.33;;
3571;SDS011;7958;53.024;12.970;2024-02-28T08:04:04;6.57;;;4.50;;
3571;SDS011;7958;53.024;12.970;2024-02-28T08:06:32;6.97;;;4.73;;
3571;SDS011;7958;53.024;12.970;2024-02-28T08:09:00;5.63;;;4.33;;
3571;SDS011;7958;53.024;12.970;2024-02-28T08:11:29;6.93;;;4.53;;
3571;SDS011;7958;53.024;12.970;2024-02-28T08:13:55;7.27;;;5.87;;
3571;SDS011;7958;53.024;12.970;2024-02-28T08:16:22;7.43;;;5.40;;
3571;SDS011;7958;53.024;12.970;2024-02-28T08:18:48;5.10;;;3.93;;
3571;SDS011;7958;53.024;12.970;2024-02-28T08:21:14;6.90;;;4.77;;
3571;SDS011;7958;53.024;12.970;2024-02-28T08:23:42;7.93;;;5.03;;
3571;SDS011;7958;53.024;12.970;2024-02-28T08:26:08;7.07;;;4.90;;
3571;SDS011;7958;53.024;12.970;2024-02-28T08:28:35;6.27;;;4.47;;
3571;SDS011;7958;53.024;12.970;2024-02-28T08:31:02;9.03;;;5.57;;
3571;SDS011;7958;53.024;12.970;2024-02-28T08:33:28;9.30;;;4.80;;
3571;SDS011;7958;53.024;12.970;2024-02-28T08:35:55;8.80;;;5.23;;
3571;SDS011;7958;53.024;12.970;2024-02-28T08:38:22;8.53;;;5.90;;
3571;SDS011;7958;53.024;12.970;2024-02-28T08:40:50;8.30;;;5.50;;
3571;SDS011;7958;53.024;12.970;2024-02-28T08:43:16;8.10;;;4.63;;
3571;SDS011;7958;53.024;12.970;2024-02-28T08:45:42;6.93;;;4.27;;
3571;SDS011;7958;53.024;12.970;2024-02-28T08:48:08;6.20;;;5.30;;
3571;SDS011;7958;53.024;12.970;2024-02-28T08:50:35;8.93;;;5.30;;
3571;SDS011;7958;53.024;12.970;2024-02-28T08:53:01;10.97;;;5.57;;
3571;SDS011;7958;53.024;12.970;2024-02-28T08:55:29;9.87;;;5.27;;
3571;SDS011;7958;53.024;12.970;2024-02-28T08:57:57;7.77;;;5.37;;
3571;SDS011;7958;53.024;12.970;2024-02-28T09:00:23;9.23;;;5.40;;
3571;SDS011;7958;53.024;12.970;2024-02-28T09:02:50;9.20;;;5.30;;
3571;SDS011;7958;53.024;12.970;2024-02-28T09:05:16;10.17;;;6.20;;
3571;SDS011;7958;53.024;12.970;2024-02-28T09:07:43;10.63;;;5.93;;
3571;SDS011;7958;53.024;12.970;2024-02-28T09:10:10;8.53;;;5.83;;
3571;SDS011;7958;53.024;12.970;2024-02-28T09:12:37;6.90;;;5.00;;
3571;SDS011;7958;53.024;12.970;2024-02-28T09:15:06;9.33;;;5.57;;
3571;SDS011;7958;53.024;12.970;2024-02-28T09:17:32;7.87;;;4.97;;
3571;SDS011;7958;53.024;12.970;2024-02-28T09:19:59;8.23;;;5.20;;
3571;SDS011;7958;53.024;12.970;2024-02-28T09:22:26;7.73;;;5.40;;
3571;SDS011;7958;53.024;12.970;2024-02-28T09:24:53;9.03;;;4.87;;
3571;SDS011;7958;53.024;12.970;2024-02-28T09:27:19;6.70;;;4.80;;
3571;SDS011;7958;53.024;12.970;2024-02-28T09:29:46;7.90;;;4.70;;
3571;SDS011;7958;53.024;12.970;2024-02-28T09:32:13;9.77;;;5.73;;
3571;SDS011;7958;53.024;12.970;2024-02-28T09:34:40;8.60;;;5.43;;
3571;SDS011;7958;53.024;12.970;2024-02-28T09:37:07;9.37;;;5.43;;
3571;SDS011;7958;53.024;12.970;2024-02-28T09:39:33;8.57;;;4.83;;
3571;SDS011;7958;53.024;12.970;2024-02-28T09:41:59;7.60;;;4.80;;
3571;SDS011;7958;53.024;12.970;2024-02-28T09:44:26;7.10;;;5.10;;
3571;SDS011;7958;53.024;12.970;2024-02-28T09:46:52;7.53;;;4.50;;
3571;SDS011;7958;53.024;12.970;2024-02-28T09:49:20;6.50;;;4.90;;
3571;SDS011;7958;53.024;12.970;2024-02-28T09:51:49;7.90;;;5.40;;
3571;SDS011;7958;53.024;12.970;2024-02-28T09:54:16;8.20;;;5.17;;
3571;SDS011;7958;53.024;12.970;2024-02-28T09:56:42;9.63;;;5.50;;
3571;SDS011;7958;53.024;12.970;2024-02-28T09:59:09;7.40;;;5.57;;
3571;SDS011;7958;53.024;12.970;2024-02-28T10:01:37;8.37;;;5.13;;
3571;SDS011;7958;53.024;12.970;2024-02-28T10:04:09;7.93;;;5.10;;
3571;SDS011;7958;53.024;12.970;2024-02-28T10:06:39;9.00;;;5.40;;
3571;SDS011;7958;53.024;12.970;2024-02-28T10:09:05;8.70;;;5.13;;
3571;SDS011;7958;53.024;12.970;2024-02-28T10:11:32;7.33;;;5.07;;
3571;SDS011;7958;53.024;12.970;2024-02-28T10:14:00;7.90;;;4.90;;
3571;SDS011;7958;53.024;12.970;2024-02-28T10:16:27;6.00;;;4.17;;
3571;SDS011;7958;53.024;12.970;2024-02-28T10:18:53;8.93;;;4.93;;
3571;SDS011;7958;53.024;12.970;2024-02-28T10:21:20;8.00;;;4.83;;
3571;SDS011;7958;53.024;12.970;2024-02-28T10:23:49;8.43;;;4.83;;
3571;SDS011;7958;53.024;12.970;2024-02-28T10:26:15;7.60;;;4.63;;
3571;SDS011;7958;53.024;12.970;2024-02-28T10:28:41;9.23;;;5.70;;
3571;SDS011;7958;53.024;12.970;2024-02-28T10:31:08;6.80;;;4.70;;
3571;SDS011;7958;53.024;12.970;2024-02-28T10:33:37;6.53;;;4.27;;
3571;SDS011;7958;53.024;12.970;2024-02-28T10:36:03;7.33;;;4.50;;
3571;SDS011;7958;53.024;12.970;2024-02-28T10:38:30;8.00;;;4.53;;
3571;SDS011;7958;53.024;12.970;2024-02-28T10:40:59;7.00;;;5.00;;
3571;SDS011;7958;53.024;12.970;2024-02-28T10:43:26;8.23;;;5.30;;
3571;SDS011;7958;53.024;12.970;2024-02-28T10:45:54;9.40;;;5.40;;
3571;SDS011;7958;53.024;12.970;2024-02-28T10:48:23;8.97;;;5.67;;
3571;SDS011;7958;53.024;12.970;2024-02-28T10:50:50;11.00;;;5.80;;
3571;SDS011;7958;53.024;12.970;2024-02-28T10:53:18;8.40;;;5.30;;
3571;SDS011;7958;53.024;12.970;2024-02-28T10:55:47;8.37;;;5.40;;
3571;SDS011;7958;53.024;12.970;2024-02-28T10:58:15;9.70;;;6.30;;
3571;SDS011;7958;53.024;12.970;2024-02-28T11:00:43;6.87;;;4.83;;
3571;SDS011;7958;53.024;12.970;2024-02-28T11:03:11;7.90;;;5.20;;
3571;SDS011;7958;53.024;12.970;2024-02-28T11:05:38;6.70;;;4.73;;
3571;SDS011;7958;53.024;12.970;2024-02-28T11:08:05;7.57;;;4.47;;
3571;SDS011;7958;53.024;12.970;2024-02-28T11:10:34;11.30;;;7.20;;
3571;SDS011;7958;53.024;12.970;2024-02-28T11:13:01;7.37;;;5.47;;
3571;SDS011;7958;53.024;12.970;2024-02-28T11:15:28;6.47;;;4.27;;
3571;SDS011;7958;53.024;12.970;2024-02-28T11:17:55;7.60;;;5.20;;
3571;SDS011;7958;53.024;12.970;2024-02-28T11:20:33;6.80;;;4.67;;
3571;SDS011;7958;53.024;12.970;2024-02-28T11:23:00;6.90;;;4.70;;
3571;SDS011;7958;53.024;12.970;2024-02-28T11:25:26;5.77;;;4.50;;
3571;SDS011;7958;53.024;12.970;2024-02-28T11:27:54;6.07;;;4.37;;
3571;SDS011;7958;53.024;12.970;2024-02-28T11:30:21;6.43;;;4.40;;
3571;SDS011;7958;53.024;12.970;2024-02-28T11:32:49;5.60;;;4.23;;
3571;SDS011;7958;53.024;12.970;2024-02-28T11:35:18;5.13;;;3.83;;
3571;SDS011;7958;53.024;12.970;2024-02-28T11:37:44;5.80;;;4.30;;
3571;SDS011;7958;53.024;12.970;2024-02-28T11:40:11;6.43;;;4.33;;
3571;SDS011;7958;53.024;12.970;2024-02-28T11:42:38;6.73;;;4.17;;
3571;SDS011;7958;53.024;12.970;2024-02-28T11:45:05;6.30;;;4.80;;
3571;SDS011;7958;53.024;12.970;2024-02-28T11:47:32;5.90;;;3.93;;
3571;SDS011;7958;53.024;12.970;2024-02-28T11:50:00;6.03;;;4.57;;
3571;SDS011;7958;53.024;12.970;2024-02-28T11:52:27;6.63;;;4.07;;
3571;SDS011;7958;53.024;12.970;2024-02-28T11:54:54;5.70;;;4.60;;
3571;SDS011;7958;53.024;12.970;2024-02-28T11:57:21;7.17;;;4.30;;
3571;SDS011;7958;53.024;12.970;2024-02-28T11:59:47;6.87;;;4.90;;
3571;SDS011;7958;53.024;12.970;2024-02-28T12:02:14;5.47;;;3.60;;
3571;SDS011;7958;53.024;12.970;2024-02-28T12:04:41;5.43;;;4.03;;
3571;SDS011;7958;53.024;12.970;2024-02-28T12:07:09;5.90;;;4.57;;
3571;SDS011;7958;53.024;12.970;2024-02-28T12:09:35;5.60;;;4.50;;
3571;SDS011;7958;53.024;12.970;2024-02-28T12:12:02;8.53;;;5.00;;
3571;SDS011;7958;53.024;12.970;2024-02-28T12:14:31;6.13;;;4.40;;
3571;SDS011;7958;53.024;12.970;2024-02-28T12:16:58;5.70;;;3.73;;
3571;SDS011;7958;53.024;12.970;2024-02-28T12:19:24;9.33;;;4.30;;
3571;SDS011;7958;53.024;12.970;2024-02-28T12:21:51;5.73;;;4.00;;
3571;SDS011;7958;53.024;12.970;2024-02-28T12:24:18;5.80;;;4.30;;
3571;SDS011;7958;53.024;12.970;2024-02-28T12:26:45;7.40;;;4.33;;
3571;SDS011;7958;53.024;12.970;2024-02-28T12:29:11;5.70;;;3.93;;
3571;SDS011;7958;53.024;12.970;2024-02-28T12:31:38;6.03;;;4.17;;
3571;SDS011;7958;53.024;12.970;2024-02-28T12:34:04;5.00;;;3.90;;
3571;SDS011;7958;53.024;12.970;2024-02-28T12:36:31;5.80;;;4.30;;
3571;SDS011;7958;53.024;12.970;2024-02-28T12:38:57;5.53;;;4.03;;
3571;SDS011;7958;53.024;12.970;2024-02-28T12:41:26;3.93;;;3.37;;
3571;SDS011;7958;53.024;12.970;2024-02-28T12:43:51;4.80;;;4.07;;
3571;SDS011;7958;53.024;12.970;2024-02-28T12:46:17;5.07;;;4.00;;
3571;SDS011;7958;53.024;12.970;2024-02-28T12:48:44;7.00;;;4.00;;
3571;SDS011;7958;53.024;12.970;2024-02-28T12:51:20;4.70;;;3.43;;
3571;SDS011;7958;53.024;12.970;2024-02-28T12:54:01;3.73;;;3.40;;
3571;SDS011;7958;53.024;12.970;2024-02-28T12:56:29;7.50;;;3.90;;
3571;SDS011;7958;53.024;12.970;2024-02-28T12:58:55;4.17;;;3.40;;
3571;SDS011;7958;53.024;12.970;2024-02-28T13:01:21;4.80;;;3.50;;
3571;SDS011;7958;53.024;12.970;2024-02-28T13:03:48;4.07;;;3.10;;
3571;SDS011;7958;53.024;12.970;2024-02-28T13:06:15;4.77;;;3.70;;
3571;SDS011;7958;53.024;12.970;2024-02-28T13:08:41;4.27;;;3.50;;
3571;SDS011;7958;53.024;12.970;2024-02-28T13:11:07;8.70;;;5.40;;
3571;SDS011;7958;53.024;12.970;2024-02-28T13:13:35;4.73;;;4.00;;
3571;SDS011;7958;53.024;12.970;2024-02-28T13:16:02;4.30;;;3.60;;
3571;SDS011;7958;53.024;12.970;2024-02-28T13:18:28;4.83;;;3.60;;
3571;SDS011;7958;53.024;12.970;2024-02-28T13:20:55;5.67;;;4.40;;
3571;SDS011;7958;53.024;12.970;2024-02-28T13:23:21;6.00;;;3.77;;
3571;SDS011;7958;53.024;12.970;2024-02-28T13:25:47;5.10;;;3.80;;
3571;SDS011;7958;53.024;12.970;2024-02-28T13:28:14;6.70;;;4.30;;
3571;SDS011;7958;53.024;12.970;2024-02-28T13:30:42;6.90;;;4.60;;
3571;SDS011;7958;53.024;12.970;2024-02-28T13:33:08;5.40;;;4.60;;
3571;SDS011;7958;53.024;12.970;2024-02-28T13:35:35;5.80;;;4.13;;
3571;SDS011;7958;53.024;12.970;2024-02-28T13:38:03;5.20;;;4.10;;
3571;SDS011;7958;53.024;12.970;2024-02-28T13:40:29;4.93;;;3.90;;
3571;SDS011;7958;53.024;12.970;2024-02-28T13:42:56;4.63;;;3.97;;
3571;SDS011;7958;53.024;12.970;2024-02-28T13:45:22;5.60;;;4.50;;
3571;SDS011;7958;53.024;12.970;2024-02-28T13:47:50;8.63;;;4.53;;
3571;SDS011;7958;53.024;12.970;2024-02-28T13:50:16;6.83;;;4.97;;
3571;SDS011;7958;53.024;12.970;2024-02-28T13:52:43;6.40;;;5.10;;
3571;SDS011;7958;53.024;12.970;2024-02-28T13:55:09;6.23;;;4.67;;
3571;SDS011;7958;53.024;12.970;2024-02-28T13:57:36;5.90;;;4.50;;
3571;SDS011;7958;53.024;12.970;2024-02-28T14:00:03;5.97;;;4.90;;
3571;SDS011;7958;53.024;12.970;2024-02-28T14:02:31;5.67;;;4.30;;
3571;SDS011;7958;53.024;12.970;2024-02-28T14:04:59;6.33;;;4.83;;
3571;SDS011;7958;53.024;12.970;2024-02-28T14:07:25;6.17;;;4.50;;
3571;SDS011;7958;53.024;12.970;2024-02-28T14:09:52;5.30;;;4.07;;
3571;SDS011;7958;53.024;12.970;2024-02-28T14:12:18;6.67;;;5.07;;
3571;SDS011;7958;53.024;12.970;2024-02-28T14:14:44;4.37;;;3.97;;
3571;SDS011;7958;53.024;12.970;2024-02-28T14:17:11;6.20;;;4.43;;
3571;SDS011;7958;53.024;12.970;2024-02-28T14:19:37;4.47;;;4.07;;
3571;SDS011;7958;53.024;12.970;2024-02-28T14:22:05;7.10;;;4.60;;
3571;SDS011;7958;53.024;12.970;2024-02-28T14:24:32;5.67;;;4.60;;
3571;SDS011;7958;53.024;12.970;2024-02-28T14:26:58;5.83;;;4.70;;
3571;SDS011;7958;53.024;12.970;2024-02-28T14:29:25;6.00;;;5.20;;
3571;SDS011;7958;53.024;12.970;2024-02-28T14:31:51;5.60;;;4.67;;
3571;SDS011;7958;53.024;12.970;2024-02-28T14:34:17;6.50;;;5.10;;
3571;SDS011;7958;53.024;12.970;2024-02-28T14:36:44;7.30;;;4.90;;
3571;SDS011;7958;53.024;12.970;2024-02-28T14:39:12;7.50;;;5.20;;
3571;SDS011;7958;53.024;12.970;2024-02-28T14:41:40;5.77;;;4.77;;
3571;SDS011;7958;53.024;12.970;2024-02-28T14:44:08;8.30;;;5.87;;
3571;SDS011;7958;53.024;12.970;2024-02-28T14:46:35;7.27;;;5.37;;
3571;SDS011;7958;53.024;12.970;2024-02-28T14:49:01;8.67;;;5.90;;
3571;SDS011;7958;53.024;12.970;2024-02-28T14:51:27;7.57;;;4.87;;
3571;SDS011;7958;53.024;12.970;2024-02-28T14:53:54;8.77;;;5.93;;
3571;SDS011;7958;53.024;12.970;2024-02-28T14:56:22;6.63;;;5.03;;
3571;SDS011;7958;53.024;12.970;2024-02-28T14:58:49;7.87;;;6.10;;